Suttons Bay, MI (49682)

12:22 PM EDT on August 30, 2015 (GMT -0400)
South Shore Drive | | Change Station
CLOSE
Current Station
Personal Weather Station
Location: Suttons Bay, MI
Elevation: 597 ft
Nearby Weather Stations

Elev 597 ft 44.97 °N, 85.64 °W | Updated 4 seconds ago

Overcast
Overcast
73.7 °F
Feels Like 75 °F
N
2.0
Wind Variable Wind from South
Gusts 4.0 mph

Today
High -- | Low -- °F
--% Chance of Precip.
Yesterday
High -- | Low -- °F
Precip. -- in
7:01 AM 8:23 PM
Full, 99% visible
Pressure 30.06 in
Visibility 10.0 miles
Clouds Few 1800 ft
Mostly Cloudy 2800 ft
Heat Index 75 °F
Dew Point 65 °F
Humidity 74%
Rainfall 0.00 in
Snow Depth Not available.
UV 4 out of 12
Pollen 10.20 out of 12
Air Quality Not available.
Flu Activity Not available.
METAR KTVC 301553Z 03003KT 10SM FEW018 BKN028 22/17 A3006 RMK AO2 SLP178 T02220167 $
Pressure 30.06 in
Visibility 10.0 miles
Clouds Few 1800 ft
Mostly Cloudy 2800 ft
Heat Index 75 °F
Dew Point 65 °F
Humidity 74%
Rainfall 0.00 in
Snow Depth Not available.
UV 4 out of 12
Pollen 10.20 out of 12
Air Quality Not available.
Flu Activity Not available.
METAR KTVC 301553Z 03003KT 10SM FEW018 BKN028 22/17 A3006 RMK AO2 SLP178 T02220167 $
Nowcast | as of 12:00 PM EDT on August 30, 2015

At 1 PM...partly cloudy. Temperature 70. Southwest winds 8 mph. At 3 PM...partly cloudy. Temperature 73. West winds 10 mph. At 5 PM...mostly clear. Temperature 73. West winds 11 mph. At 7 PM...mostly clear. Temperature 73. Southwest winds 10 mph.

×

10-Day Weather Forecast

×

Almanac

Astronomy

Aug. 30, 2015 Rise Set
Actual Time
Civil Twilight
Nautical Twilight
Astronomical Twilight
Moon
Length of Visible Light
Length of Day
Tomorrow will be .
, % of the Moon is Illuminated

Today's Extremes

State Highs State Lows

Community

WunderPhotos

Upload Photos

1,851,005 photos uploaded!

WunderBlogs® & News

Nearby

Air Quality

  Air Quality AQ Index Pollutant
Not available.

Snow Depth

Station Depth Elevation

Earthquake Activity

City Distance Mag. Time & Date
Minimum magnitude displayed is 2.5.

Coastal Water Temperatures

Place Temperature

Stations

Nearby Weather Stations

Station Location Temp. Windchill Dew Point Humidity Wind Precip. Elev Updated Type